sensor_id;sensor_type;location;lat;lon;timestamp;P1;durP1;ratioP1;P2;durP2;ratioP2
6101;SDS011;3081;50.584;7.032;2023-07-20T00:00:05;8.30;;;2.33;;
6101;SDS011;3081;50.584;7.032;2023-07-20T00:02:33;9.63;;;2.17;;
6101;SDS011;3081;50.584;7.032;2023-07-20T00:05:00;8.70;;;2.60;;
6101;SDS011;3081;50.584;7.032;2023-07-20T00:07:27;8.47;;;2.47;;
6101;SDS011;3081;50.584;7.032;2023-07-20T00:09:54;12.53;;;2.60;;
6101;SDS011;3081;50.584;7.032;2023-07-20T00:12:23;10.00;;;2.53;;
6101;SDS011;3081;50.584;7.032;2023-07-20T00:14:50;10.30;;;2.53;;
6101;SDS011;3081;50.584;7.032;2023-07-20T00:17:18;16.43;;;2.67;;
6101;SDS011;3081;50.584;7.032;2023-07-20T00:19:45;9.47;;;2.50;;
6101;SDS011;3081;50.584;7.032;2023-07-20T00:22:12;11.17;;;2.17;;
6101;SDS011;3081;50.584;7.032;2023-07-20T00:24:39;13.30;;;2.90;;
6101;SDS011;3081;50.584;7.032;2023-07-20T00:27:06;9.47;;;2.33;;
6101;SDS011;3081;50.584;7.032;2023-07-20T00:29:34;8.40;;;2.67;;
6101;SDS011;3081;50.584;7.032;2023-07-20T00:32:01;9.93;;;3.20;;
6101;SDS011;3081;50.584;7.032;2023-07-20T00:34:30;7.57;;;2.87;;
6101;SDS011;3081;50.584;7.032;2023-07-20T00:36:57;7.37;;;2.80;;
6101;SDS011;3081;50.584;7.032;2023-07-20T00:39:24;7.70;;;3.27;;
6101;SDS011;3081;50.584;7.032;2023-07-20T00:41:50;7.03;;;2.70;;
6101;SDS011;3081;50.584;7.032;2023-07-20T00:44:17;8.97;;;3.20;;
6101;SDS011;3081;50.584;7.032;2023-07-20T00:46:46;11.53;;;3.30;;
6101;SDS011;3081;50.584;7.032;2023-07-20T00:49:14;7.87;;;3.00;;
6101;SDS011;3081;50.584;7.032;2023-07-20T00:51:46;6.00;;;2.80;;
6101;SDS011;3081;50.584;7.032;2023-07-20T00:54:14;7.43;;;3.10;;
6101;SDS011;3081;50.584;7.032;2023-07-20T00:56:41;8.53;;;2.90;;
6101;SDS011;3081;50.584;7.032;2023-07-20T00:59:09;9.63;;;4.10;;
6101;SDS011;3081;50.584;7.032;2023-07-20T01:01:36;5.43;;;2.83;;
6101;SDS011;3081;50.584;7.032;2023-07-20T01:04:05;6.70;;;3.07;;
6101;SDS011;3081;50.584;7.032;2023-07-20T01:06:35;6.40;;;2.63;;
6101;SDS011;3081;50.584;7.032;2023-07-20T01:09:09;8.77;;;2.87;;
6101;SDS011;3081;50.584;7.032;2023-07-20T01:11:43;6.90;;;3.03;;
6101;SDS011;3081;50.584;7.032;2023-07-20T01:14:15;9.03;;;3.07;;
6101;SDS011;3081;50.584;7.032;2023-07-20T01:16:43;6.10;;;2.93;;
6101;SDS011;3081;50.584;7.032;2023-07-20T01:19:12;8.50;;;3.07;;
6101;SDS011;3081;50.584;7.032;2023-07-20T01:21:40;6.83;;;2.80;;
6101;SDS011;3081;50.584;7.032;2023-07-20T01:24:31;5.70;;;2.80;;
6101;SDS011;3081;50.584;7.032;2023-07-20T01:27:25;9.03;;;2.77;;
6101;SDS011;3081;50.584;7.032;2023-07-20T01:30:19;7.50;;;3.20;;
6101;SDS011;3081;50.584;7.032;2023-07-20T01:33:01;7.97;;;3.23;;
6101;SDS011;3081;50.584;7.032;2023-07-20T01:35:29;6.20;;;2.83;;
6101;SDS011;3081;50.584;7.032;2023-07-20T01:37:57;5.20;;;2.70;;
6101;SDS011;3081;50.584;7.032;2023-07-20T01:40:25;8.50;;;3.13;;
6101;SDS011;3081;50.584;7.032;2023-07-20T01:42:53;9.77;;;3.27;;
6101;SDS011;3081;50.584;7.032;2023-07-20T01:45:19;6.50;;;2.87;;
6101;SDS011;3081;50.584;7.032;2023-07-20T01:47:46;7.70;;;2.80;;
6101;SDS011;3081;50.584;7.032;2023-07-20T01:50:15;7.07;;;2.67;;
6101;SDS011;3081;50.584;7.032;2023-07-20T01:52:42;6.40;;;2.80;;
6101;SDS011;3081;50.584;7.032;2023-07-20T01:55:08;8.37;;;3.10;;
6101;SDS011;3081;50.584;7.032;2023-07-20T01:57:35;8.30;;;2.43;;
6101;SDS011;3081;50.584;7.032;2023-07-20T02:00:03;9.20;;;2.70;;
6101;SDS011;3081;50.584;7.032;2023-07-20T02:02:31;6.20;;;2.40;;
6101;SDS011;3081;50.584;7.032;2023-07-20T02:04:58;7.80;;;2.50;;
6101;SDS011;3081;50.584;7.032;2023-07-20T02:07:27;5.80;;;2.70;;
6101;SDS011;3081;50.584;7.032;2023-07-20T02:09:54;8.70;;;2.93;;
6101;SDS011;3081;50.584;7.032;2023-07-20T02:12:20;8.07;;;3.10;;
6101;SDS011;3081;50.584;7.032;2023-07-20T02:14:47;5.93;;;2.50;;
6101;SDS011;3081;50.584;7.032;2023-07-20T02:17:15;7.13;;;2.53;;
6101;SDS011;3081;50.584;7.032;2023-07-20T02:19:42;8.93;;;3.03;;
6101;SDS011;3081;50.584;7.032;2023-07-20T02:22:09;10.67;;;3.20;;
6101;SDS011;3081;50.584;7.032;2023-07-20T02:24:37;7.20;;;3.30;;
6101;SDS011;3081;50.584;7.032;2023-07-20T02:27:04;7.17;;;2.90;;
6101;SDS011;3081;50.584;7.032;2023-07-20T02:29:32;8.77;;;3.20;;
6101;SDS011;3081;50.584;7.032;2023-07-20T02:31:59;7.33;;;3.57;;
6101;SDS011;3081;50.584;7.032;2023-07-20T02:34:25;7.97;;;3.07;;
6101;SDS011;3081;50.584;7.032;2023-07-20T02:36:52;7.80;;;2.80;;
6101;SDS011;3081;50.584;7.032;2023-07-20T02:39:21;6.73;;;2.70;;
6101;SDS011;3081;50.584;7.032;2023-07-20T02:41:50;6.90;;;2.87;;
6101;SDS011;3081;50.584;7.032;2023-07-20T02:44:17;10.33;;;2.80;;
6101;SDS011;3081;50.584;7.032;2023-07-20T02:46:43;12.87;;;3.70;;
6101;SDS011;3081;50.584;7.032;2023-07-20T02:49:10;8.97;;;3.37;;
6101;SDS011;3081;50.584;7.032;2023-07-20T02:51:37;9.83;;;2.70;;
6101;SDS011;3081;50.584;7.032;2023-07-20T02:54:04;7.47;;;3.47;;
6101;SDS011;3081;50.584;7.032;2023-07-20T02:56:31;9.33;;;3.20;;
6101;SDS011;3081;50.584;7.032;2023-07-20T02:59:00;9.47;;;3.47;;
6101;SDS011;3081;50.584;7.032;2023-07-20T03:01:28;6.20;;;3.00;;
6101;SDS011;3081;50.584;7.032;2023-07-20T03:03:55;6.40;;;3.17;;
6101;SDS011;3081;50.584;7.032;2023-07-20T03:06:22;7.73;;;2.90;;
6101;SDS011;3081;50.584;7.032;2023-07-20T03:08:49;5.37;;;2.60;;
6101;SDS011;3081;50.584;7.032;2023-07-20T03:11:17;8.20;;;3.07;;
6101;SDS011;3081;50.584;7.032;2023-07-20T03:13:44;6.90;;;3.20;;
6101;SDS011;3081;50.584;7.032;2023-07-20T03:16:13;7.03;;;3.23;;
6101;SDS011;3081;50.584;7.032;2023-07-20T03:18:42;8.00;;;3.07;;
6101;SDS011;3081;50.584;7.032;2023-07-20T03:21:10;7.70;;;3.00;;
6101;SDS011;3081;50.584;7.032;2023-07-20T03:23:38;6.20;;;3.10;;
6101;SDS011;3081;50.584;7.032;2023-07-20T03:26:05;7.87;;;2.50;;
6101;SDS011;3081;50.584;7.032;2023-07-20T03:28:33;6.60;;;2.53;;
6101;SDS011;3081;50.584;7.032;2023-07-20T03:31:00;6.80;;;2.20;;
6101;SDS011;3081;50.584;7.032;2023-07-20T03:33:29;5.80;;;2.50;;
6101;SDS011;3081;50.584;7.032;2023-07-20T03:35:56;7.20;;;2.93;;
6101;SDS011;3081;50.584;7.032;2023-07-20T03:38:24;6.20;;;2.43;;
6101;SDS011;3081;50.584;7.032;2023-07-20T03:40:51;8.23;;;2.53;;
6101;SDS011;3081;50.584;7.032;2023-07-20T03:43:19;6.50;;;2.37;;
6101;SDS011;3081;50.584;7.032;2023-07-20T03:45:46;9.10;;;3.20;;
6101;SDS011;3081;50.584;7.032;2023-07-20T03:48:13;7.33;;;3.10;;
6101;SDS011;3081;50.584;7.032;2023-07-20T03:50:43;6.87;;;2.73;;
6101;SDS011;3081;50.584;7.032;2023-07-20T03:53:10;6.80;;;2.83;;
6101;SDS011;3081;50.584;7.032;2023-07-20T03:55:37;6.90;;;2.40;;
6101;SDS011;3081;50.584;7.032;2023-07-20T03:58:05;5.13;;;2.40;;
6101;SDS011;3081;50.584;7.032;2023-07-20T04:00:32;6.80;;;2.13;;
6101;SDS011;3081;50.584;7.032;2023-07-20T04:03:00;4.60;;;2.37;;
6101;SDS011;3081;50.584;7.032;2023-07-20T04:05:27;7.17;;;2.47;;
6101;SDS011;3081;50.584;7.032;2023-07-20T04:07:55;7.80;;;2.50;;
6101;SDS011;3081;50.584;7.032;2023-07-20T04:10:22;9.10;;;2.40;;
6101;SDS011;3081;50.584;7.032;2023-07-20T04:12:49;5.87;;;2.37;;
6101;SDS011;3081;50.584;7.032;2023-07-20T04:15:16;6.20;;;2.77;;
6101;SDS011;3081;50.584;7.032;2023-07-20T04:17:43;8.23;;;2.43;;
6101;SDS011;3081;50.584;7.032;2023-07-20T04:20:11;5.50;;;2.40;;
6101;SDS011;3081;50.584;7.032;2023-07-20T04:22:39;9.50;;;2.80;;
6101;SDS011;3081;50.584;7.032;2023-07-20T04:25:07;9.40;;;2.67;;
6101;SDS011;3081;50.584;7.032;2023-07-20T04:27:35;5.43;;;2.27;;
6101;SDS011;3081;50.584;7.032;2023-07-20T04:30:02;11.50;;;3.33;;
6101;SDS011;3081;50.584;7.032;2023-07-20T04:32:29;10.23;;;3.17;;
6101;SDS011;3081;50.584;7.032;2023-07-20T04:34:58;7.37;;;2.77;;
6101;SDS011;3081;50.584;7.032;2023-07-20T04:37:25;11.47;;;3.47;;
6101;SDS011;3081;50.584;7.032;2023-07-20T04:39:52;8.47;;;3.30;;
6101;SDS011;3081;50.584;7.032;2023-07-20T04:42:20;7.17;;;3.70;;
6101;SDS011;3081;50.584;7.032;2023-07-20T04:44:47;7.87;;;3.77;;
6101;SDS011;3081;50.584;7.032;2023-07-20T04:47:14;8.30;;;2.87;;
6101;SDS011;3081;50.584;7.032;2023-07-20T04:49:41;12.60;;;3.97;;
6101;SDS011;3081;50.584;7.032;2023-07-20T04:52:08;12.53;;;3.57;;
6101;SDS011;3081;50.584;7.032;2023-07-20T04:54:35;10.70;;;3.83;;
6101;SDS011;3081;50.584;7.032;2023-07-20T04:57:02;13.23;;;5.67;;
6101;SDS011;3081;50.584;7.032;2023-07-20T04:59:30;9.80;;;3.40;;
6101;SDS011;3081;50.584;7.032;2023-07-20T05:01:59;12.33;;;3.47;;
6101;SDS011;3081;50.584;7.032;2023-07-20T05:04:26;7.40;;;3.53;;
6101;SDS011;3081;50.584;7.032;2023-07-20T05:06:53;7.93;;;3.40;;
6101;SDS011;3081;50.584;7.032;2023-07-20T05:09:20;7.63;;;3.70;;
6101;SDS011;3081;50.584;7.032;2023-07-20T05:11:48;10.73;;;3.40;;
6101;SDS011;3081;50.584;7.032;2023-07-20T05:14:15;12.40;;;4.30;;
6101;SDS011;3081;50.584;7.032;2023-07-20T05:16:43;9.10;;;4.33;;
6101;SDS011;3081;50.584;7.032;2023-07-20T05:19:10;9.97;;;4.33;;
6101;SDS011;3081;50.584;7.032;2023-07-20T05:21:37;11.60;;;3.80;;
6101;SDS011;3081;50.584;7.032;2023-07-20T05:24:04;6.87;;;3.30;;
6101;SDS011;3081;50.584;7.032;2023-07-20T05:26:31;9.60;;;3.77;;
6101;SDS011;3081;50.584;7.032;2023-07-20T05:28:59;9.40;;;3.77;;
6101;SDS011;3081;50.584;7.032;2023-07-20T05:31:26;9.63;;;3.90;;
6101;SDS011;3081;50.584;7.032;2023-07-20T05:33:56;7.73;;;3.80;;
6101;SDS011;3081;50.584;7.032;2023-07-20T05:36:26;8.80;;;3.80;;
6101;SDS011;3081;50.584;7.032;2023-07-20T05:38:53;9.53;;;4.40;;
6101;SDS011;3081;50.584;7.032;2023-07-20T05:41:20;8.40;;;4.40;;
6101;SDS011;3081;50.584;7.032;2023-07-20T05:43:47;10.50;;;3.90;;
6101;SDS011;3081;50.584;7.032;2023-07-20T05:46:14;10.60;;;4.37;;
6101;SDS011;3081;50.584;7.032;2023-07-20T05:48:41;14.07;;;4.40;;
6101;SDS011;3081;50.584;7.032;2023-07-20T05:51:09;11.30;;;5.33;;
6101;SDS011;3081;50.584;7.032;2023-07-20T05:53:36;11.23;;;5.10;;
6101;SDS011;3081;50.584;7.032;2023-07-20T05:56:03;14.17;;;5.23;;
6101;SDS011;3081;50.584;7.032;2023-07-20T05:58:31;10.47;;;4.80;;
6101;SDS011;3081;50.584;7.032;2023-07-20T06:00:58;11.17;;;4.70;;
6101;SDS011;3081;50.584;7.032;2023-07-20T06:03:25;8.90;;;4.53;;
6101;SDS011;3081;50.584;7.032;2023-07-20T06:05:52;12.43;;;5.30;;
6101;SDS011;3081;50.584;7.032;2023-07-20T06:08:25;11.17;;;5.50;;
6101;SDS011;3081;50.584;7.032;2023-07-20T06:10:52;12.43;;;5.43;;
6101;SDS011;3081;50.584;7.032;2023-07-20T06:13:19;9.50;;;4.97;;
6101;SDS011;3081;50.584;7.032;2023-07-20T06:15:46;19.03;;;7.07;;
6101;SDS011;3081;50.584;7.032;2023-07-20T06:18:13;13.13;;;4.60;;
6101;SDS011;3081;50.584;7.032;2023-07-20T06:20:40;9.93;;;4.40;;
6101;SDS011;3081;50.584;7.032;2023-07-20T06:23:07;12.27;;;4.90;;
6101;SDS011;3081;50.584;7.032;2023-07-20T06:25:35;13.20;;;5.90;;
6101;SDS011;3081;50.584;7.032;2023-07-20T06:28:02;15.73;;;5.17;;
6101;SDS011;3081;50.584;7.032;2023-07-20T06:30:33;11.23;;;4.57;;
6101;SDS011;3081;50.584;7.032;2023-07-20T06:33:00;10.57;;;3.83;;
6101;SDS011;3081;50.584;7.032;2023-07-20T06:35:27;9.13;;;4.03;;
6101;SDS011;3081;50.584;7.032;2023-07-20T06:37:54;9.43;;;4.20;;
6101;SDS011;3081;50.584;7.032;2023-07-20T06:40:20;10.10;;;3.70;;
6101;SDS011;3081;50.584;7.032;2023-07-20T06:42:49;10.33;;;4.17;;
6101;SDS011;3081;50.584;7.032;2023-07-20T06:45:16;11.13;;;3.30;;
6101;SDS011;3081;50.584;7.032;2023-07-20T06:47:43;9.60;;;4.20;;
6101;SDS011;3081;50.584;7.032;2023-07-20T06:50:10;9.37;;;3.97;;
6101;SDS011;3081;50.584;7.032;2023-07-20T06:52:37;12.73;;;3.87;;
6101;SDS011;3081;50.584;7.032;2023-07-20T06:55:05;13.27;;;3.67;;
6101;SDS011;3081;50.584;7.032;2023-07-20T06:57:33;9.93;;;3.50;;
6101;SDS011;3081;50.584;7.032;2023-07-20T07:00:01;8.83;;;3.63;;
6101;SDS011;3081;50.584;7.032;2023-07-20T07:02:29;15.57;;;3.53;;
6101;SDS011;3081;50.584;7.032;2023-07-20T07:04:56;14.47;;;4.03;;
6101;SDS011;3081;50.584;7.032;2023-07-20T07:07:23;12.93;;;4.13;;
6101;SDS011;3081;50.584;7.032;2023-07-20T07:09:50;13.10;;;3.80;;
6101;SDS011;3081;50.584;7.032;2023-07-20T07:12:16;10.70;;;4.30;;
6101;SDS011;3081;50.584;7.032;2023-07-20T07:14:43;10.67;;;3.57;;
6101;SDS011;3081;50.584;7.032;2023-07-20T07:17:12;10.10;;;3.13;;
6101;SDS011;3081;50.584;7.032;2023-07-20T07:19:39;10.53;;;4.03;;
6101;SDS011;3081;50.584;7.032;2023-07-20T07:22:07;9.87;;;3.13;;
6101;SDS011;3081;50.584;7.032;2023-07-20T07:24:34;14.80;;;4.00;;
6101;SDS011;3081;50.584;7.032;2023-07-20T07:27:01;13.63;;;4.10;;
6101;SDS011;3081;50.584;7.032;2023-07-20T07:29:29;9.60;;;2.80;;
6101;SDS011;3081;50.584;7.032;2023-07-20T07:31:56;10.93;;;4.00;;
6101;SDS011;3081;50.584;7.032;2023-07-20T07:34:24;10.80;;;3.77;;
6101;SDS011;3081;50.584;7.032;2023-07-20T07:36:51;16.13;;;4.07;;
6101;SDS011;3081;50.584;7.032;2023-07-20T07:39:18;11.70;;;4.30;;
6101;SDS011;3081;50.584;7.032;2023-07-20T07:41:45;10.33;;;3.50;;
6101;SDS011;3081;50.584;7.032;2023-07-20T07:44:12;13.00;;;4.20;;
6101;SDS011;3081;50.584;7.032;2023-07-20T07:46:39;13.60;;;3.53;;
6101;SDS011;3081;50.584;7.032;2023-07-20T07:49:06;10.30;;;3.20;;
6101;SDS011;3081;50.584;7.032;2023-07-20T07:51:35;11.63;;;3.57;;
6101;SDS011;3081;50.584;7.032;2023-07-20T07:54:02;10.90;;;3.23;;
6101;SDS011;3081;50.584;7.032;2023-07-20T07:56:29;8.90;;;3.37;;
6101;SDS011;3081;50.584;7.032;2023-07-20T07:58:55;9.57;;;3.13;;
6101;SDS011;3081;50.584;7.032;2023-07-20T08:01:22;18.90;;;3.00;;
6101;SDS011;3081;50.584;7.032;2023-07-20T08:03:50;10.00;;;2.93;;
6101;SDS011;3081;50.584;7.032;2023-07-20T08:06:17;10.27;;;3.37;;
6101;SDS011;3081;50.584;7.032;2023-07-20T08:08:45;11.13;;;3.20;;
6101;SDS011;3081;50.584;7.032;2023-07-20T08:11:12;9.07;;;2.87;;
6101;SDS011;3081;50.584;7.032;2023-07-20T08:13:39;8.43;;;2.70;;
6101;SDS011;3081;50.584;7.032;2023-07-20T08:16:06;12.20;;;3.13;;
6101;SDS011;3081;50.584;7.032;2023-07-20T08:18:33;10.83;;;3.03;;
6101;SDS011;3081;50.584;7.032;2023-07-20T08:21:00;8.33;;;2.37;;
6101;SDS011;3081;50.584;7.032;2023-07-20T08:23:28;11.27;;;3.27;;
6101;SDS011;3081;50.584;7.032;2023-07-20T08:25:56;10.03;;;2.80;;
6101;SDS011;3081;50.584;7.032;2023-07-20T08:28:23;9.00;;;2.77;;
6101;SDS011;3081;50.584;7.032;2023-07-20T08:30:51;9.60;;;2.37;;
6101;SDS011;3081;50.584;7.032;2023-07-20T08:33:18;9.60;;;2.63;;
6101;SDS011;3081;50.584;7.032;2023-07-20T08:35:46;8.93;;;2.10;;
6101;SDS011;3081;50.584;7.032;2023-07-20T08:38:13;8.47;;;2.53;;
6101;SDS011;3081;50.584;7.032;2023-07-20T08:40:40;8.80;;;2.07;;
6101;SDS011;3081;50.584;7.032;2023-07-20T08:43:10;9.73;;;3.20;;
6101;SDS011;3081;50.584;7.032;2023-07-20T08:45:38;9.27;;;2.70;;
6101;SDS011;3081;50.584;7.032;2023-07-20T08:48:06;9.67;;;2.60;;
6101;SDS011;3081;50.584;7.032;2023-07-20T08:50:34;10.87;;;2.97;;
6101;SDS011;3081;50.584;7.032;2023-07-20T08:53:02;11.93;;;2.60;;
6101;SDS011;3081;50.584;7.032;2023-07-20T08:55:29;16.03;;;3.20;;
6101;SDS011;3081;50.584;7.032;2023-07-20T08:57:57;10.30;;;2.40;;
6101;SDS011;3081;50.584;7.032;2023-07-20T09:00:26;9.13;;;2.80;;
6101;SDS011;3081;50.584;7.032;2023-07-20T09:02:54;8.77;;;2.30;;
6101;SDS011;3081;50.584;7.032;2023-07-20T09:05:22;8.47;;;2.10;;
6101;SDS011;3081;50.584;7.032;2023-07-20T09:07:50;8.40;;;2.53;;
6101;SDS011;3081;50.584;7.032;2023-07-20T09:10:18;8.27;;;2.10;;
6101;SDS011;3081;50.584;7.032;2023-07-20T09:12:46;8.20;;;2.60;;
6101;SDS011;3081;50.584;7.032;2023-07-20T09:15:14;8.57;;;2.00;;
6101;SDS011;3081;50.584;7.032;2023-07-20T09:17:46;8.53;;;2.07;;
6101;SDS011;3081;50.584;7.032;2023-07-20T09:20:14;8.07;;;1.70;;
6101;SDS011;3081;50.584;7.032;2023-07-20T09:22:42;8.33;;;1.80;;
6101;SDS011;3081;50.584;7.032;2023-07-20T09:25:10;10.47;;;1.77;;
6101;SDS011;3081;50.584;7.032;2023-07-20T09:27:39;10.30;;;2.20;;
6101;SDS011;3081;50.584;7.032;2023-07-20T09:30:07;7.83;;;1.57;;
6101;SDS011;3081;50.584;7.032;2023-07-20T09:32:39;8.10;;;2.00;;
6101;SDS011;3081;50.584;7.032;2023-07-20T09:35:13;8.07;;;2.40;;
6101;SDS011;3081;50.584;7.032;2023-07-20T09:37:45;8.20;;;1.87;;
6101;SDS011;3081;50.584;7.032;2023-07-20T09:40:15;8.53;;;1.93;;
6101;SDS011;3081;50.584;7.032;2023-07-20T09:42:43;8.53;;;1.97;;
6101;SDS011;3081;50.584;7.032;2023-07-20T09:45:11;7.83;;;1.63;;
6101;SDS011;3081;50.584;7.032;2023-07-20T09:47:38;8.47;;;1.90;;
6101;SDS011;3081;50.584;7.032;2023-07-20T09:50:06;7.70;;;1.90;;
6101;SDS011;3081;50.584;7.032;2023-07-20T09:52:38;8.03;;;1.40;;
6101;SDS011;3081;50.584;7.032;2023-07-20T09:55:08;8.73;;;1.93;;
6101;SDS011;3081;50.584;7.032;2023-07-20T09:57:36;8.27;;;1.77;;
6101;SDS011;3081;50.584;7.032;2023-07-20T10:00:04;7.63;;;2.17;;
6101;SDS011;3081;50.584;7.032;2023-07-20T10:02:40;9.37;;;1.93;;
6101;SDS011;3081;50.584;7.032;2023-07-20T10:05:08;10.27;;;2.57;;
6101;SDS011;3081;50.584;7.032;2023-07-20T10:07:40;8.70;;;1.93;;
6101;SDS011;3081;50.584;7.032;2023-07-20T10:10:10;9.00;;;1.80;;
6101;SDS011;3081;50.584;7.032;2023-07-20T10:12:37;7.40;;;1.80;;
6101;SDS011;3081;50.584;7.032;2023-07-20T10:15:10;7.70;;;2.03;;
6101;SDS011;3081;50.584;7.032;2023-07-20T10:17:45;7.57;;;1.90;;
6101;SDS011;3081;50.584;7.032;2023-07-20T10:20:19;8.13;;;1.70;;
6101;SDS011;3081;50.584;7.032;2023-07-20T10:22:49;7.33;;;1.70;;
6101;SDS011;3081;50.584;7.032;2023-07-20T10:25:19;9.00;;;1.87;;
6101;SDS011;3081;50.584;7.032;2023-07-20T10:27:48;7.33;;;1.50;;
6101;SDS011;3081;50.584;7.032;2023-07-20T10:30:16;8.57;;;2.30;;
6101;SDS011;3081;50.584;7.032;2023-07-20T10:32:44;7.47;;;1.57;;
6101;SDS011;3081;50.584;7.032;2023-07-20T10:35:13;7.00;;;1.47;;
6101;SDS011;3081;50.584;7.032;2023-07-20T10:37:48;7.10;;;1.40;;
6101;SDS011;3081;50.584;7.032;2023-07-20T10:40:30;7.10;;;1.60;;
6101;SDS011;3081;50.584;7.032;2023-07-20T10:42:58;9.43;;;1.43;;
6101;SDS011;3081;50.584;7.032;2023-07-20T10:45:36;7.83;;;1.70;;
6101;SDS011;3081;50.584;7.032;2023-07-20T10:48:13;27.03;;;2.23;;
6101;SDS011;3081;50.584;7.032;2023-07-20T10:50:41;7.63;;;1.80;;
6101;SDS011;3081;50.584;7.032;2023-07-20T10:53:14;10.10;;;1.90;;
6101;SDS011;3081;50.584;7.032;2023-07-20T10:55:42;8.53;;;1.40;;
6101;SDS011;3081;50.584;7.032;2023-07-20T10:58:15;7.10;;;1.30;;
6101;SDS011;3081;50.584;7.032;2023-07-20T11:00:55;7.03;;;1.30;;
6101;SDS011;3081;50.584;7.032;2023-07-20T11:03:26;9.17;;;1.50;;
6101;SDS011;3081;50.584;7.032;2023-07-20T11:05:56;7.60;;;1.60;;
6101;SDS011;3081;50.584;7.032;2023-07-20T11:08:40;7.30;;;1.40;;
6101;SDS011;3081;50.584;7.032;2023-07-20T11:11:20;6.70;;;1.10;;
6101;SDS011;3081;50.584;7.032;2023-07-20T11:13:54;7.47;;;1.50;;
6101;SDS011;3081;50.584;7.032;2023-07-20T11:19:14;6.60;;;1.23;;
6101;SDS011;3081;50.584;7.032;2023-07-20T11:21:43;8.30;;;1.30;;
6101;SDS011;3081;50.584;7.032;2023-07-20T11:24:12;7.13;;;1.27;;
6101;SDS011;3081;50.584;7.032;2023-07-20T11:26:40;8.73;;;1.47;;
6101;SDS011;3081;50.584;7.032;2023-07-20T11:29:08;6.87;;;1.30;;
6101;SDS011;3081;50.584;7.032;2023-07-20T11:31:35;9.50;;;1.40;;
6101;SDS011;3081;50.584;7.032;2023-07-20T11:34:03;8.10;;;1.80;;
6101;SDS011;3081;50.584;7.032;2023-07-20T11:36:30;7.50;;;1.70;;
6101;SDS011;3081;50.584;7.032;2023-07-20T11:38:58;7.60;;;1.53;;
6101;SDS011;3081;50.584;7.032;2023-07-20T11:41:27;7.10;;;1.23;;
6101;SDS011;3081;50.584;7.032;2023-07-20T11:43:54;9.77;;;2.17;;
6101;SDS011;3081;50.584;7.032;2023-07-20T11:46:21;7.53;;;1.50;;
6101;SDS011;3081;50.584;7.032;2023-07-20T11:48:48;8.23;;;1.60;;
6101;SDS011;3081;50.584;7.032;2023-07-20T11:51:15;8.63;;;1.70;;
6101;SDS011;3081;50.584;7.032;2023-07-20T11:53:43;11.53;;;1.97;;
6101;SDS011;3081;50.584;7.032;2023-07-20T11:56:11;8.03;;;2.07;;
6101;SDS011;3081;50.584;7.032;2023-07-20T11:58:43;7.30;;;1.60;;
6101;SDS011;3081;50.584;7.032;2023-07-20T12:01:11;8.60;;;1.70;;
6101;SDS011;3081;50.584;7.032;2023-07-20T12:03:38;9.33;;;1.93;;
6101;SDS011;3081;50.584;7.032;2023-07-20T12:06:06;8.50;;;1.53;;
6101;SDS011;3081;50.584;7.032;2023-07-20T12:08:33;6.60;;;1.03;;
6101;SDS011;3081;50.584;7.032;2023-07-20T12:11:00;7.10;;;1.40;;
6101;SDS011;3081;50.584;7.032;2023-07-20T12:13:35;7.97;;;2.50;;
6101;SDS011;3081;50.584;7.032;2023-07-20T12:16:08;7.73;;;1.30;;
6101;SDS011;3081;50.584;7.032;2023-07-20T12:18:37;6.63;;;0.97;;
6101;SDS011;3081;50.584;7.032;2023-07-20T12:21:05;6.90;;;1.37;;
6101;SDS011;3081;50.584;7.032;2023-07-20T12:23:34;7.10;;;1.57;;
6101;SDS011;3081;50.584;7.032;2023-07-20T12:26:03;7.53;;;1.50;;
6101;SDS011;3081;50.584;7.032;2023-07-20T12:28:32;11.90;;;1.57;;
6101;SDS011;3081;50.584;7.032;2023-07-20T12:31:01;7.80;;;1.90;;
6101;SDS011;3081;50.584;7.032;2023-07-20T12:33:30;8.20;;;1.50;;
6101;SDS011;3081;50.584;7.032;2023-07-20T12:35:57;6.90;;;1.50;;
6101;SDS011;3081;50.584;7.032;2023-07-20T12:38:24;6.87;;;1.30;;
6101;SDS011;3081;50.584;7.032;2023-07-20T12:40:52;7.20;;;1.43;;
6101;SDS011;3081;50.584;7.032;2023-07-20T12:43:20;7.20;;;1.50;;
6101;SDS011;3081;50.584;7.032;2023-07-20T12:45:46;7.70;;;2.33;;
6101;SDS011;3081;50.584;7.032;2023-07-20T12:48:14;6.63;;;1.27;;
6101;SDS011;3081;50.584;7.032;2023-07-20T12:50:42;6.20;;;1.00;;
6101;SDS011;3081;50.584;7.032;2023-07-20T12:53:09;6.60;;;1.30;;
6101;SDS011;3081;50.584;7.032;2023-07-20T12:55:37;7.87;;;1.73;;
6101;SDS011;3081;50.584;7.032;2023-07-20T12:58:03;9.97;;;1.67;;
6101;SDS011;3081;50.584;7.032;2023-07-20T13:00:30;8.70;;;1.93;;
6101;SDS011;3081;50.584;7.032;2023-07-20T13:02:58;7.53;;;1.60;;
6101;SDS011;3081;50.584;7.032;2023-07-20T13:05:24;8.10;;;1.57;;
6101;SDS011;3081;50.584;7.032;2023-07-20T13:07:53;9.40;;;1.57;;
6101;SDS011;3081;50.584;7.032;2023-07-20T13:10:20;9.40;;;2.57;;
6101;SDS011;3081;50.584;7.032;2023-07-20T13:12:47;6.83;;;1.67;;
6101;SDS011;3081;50.584;7.032;2023-07-20T13:15:13;8.60;;;1.53;;
6101;SDS011;3081;50.584;7.032;2023-07-20T13:17:40;7.47;;;1.43;;
6101;SDS011;3081;50.584;7.032;2023-07-20T13:20:08;7.97;;;1.67;;
6101;SDS011;3081;50.584;7.032;2023-07-20T13:22:36;6.80;;;1.40;;
6101;SDS011;3081;50.584;7.032;2023-07-20T13:25:05;9.03;;;1.47;;
6101;SDS011;3081;50.584;7.032;2023-07-20T13:27:33;6.90;;;1.67;;
6101;SDS011;3081;50.584;7.032;2023-07-20T13:30:00;7.50;;;1.90;;
6101;SDS011;3081;50.584;7.032;2023-07-20T13:32:31;8.40;;;1.80;;
6101;SDS011;3081;50.584;7.032;2023-07-20T13:34:58;7.27;;;1.73;;
6101;SDS011;3081;50.584;7.032;2023-07-20T13:37:25;8.27;;;1.77;;
6101;SDS011;3081;50.584;7.032;2023-07-20T13:39:53;6.97;;;1.47;;
6101;SDS011;3081;50.584;7.032;2023-07-20T13:42:21;7.00;;;1.37;;
6101;SDS011;3081;50.584;7.032;2023-07-20T13:44:48;7.03;;;1.60;;
6101;SDS011;3081;50.584;7.032;2023-07-20T13:47:15;6.73;;;1.30;;
6101;SDS011;3081;50.584;7.032;2023-07-20T13:49:43;7.43;;;1.70;;
6101;SDS011;3081;50.584;7.032;2023-07-20T13:52:09;7.23;;;1.13;;
6101;SDS011;3081;50.584;7.032;2023-07-20T13:54:36;6.53;;;1.30;;
6101;SDS011;3081;50.584;7.032;2023-07-20T13:57:03;6.83;;;1.50;;
6101;SDS011;3081;50.584;7.032;2023-07-20T13:59:32;77.63;;;4.70;;
6101;SDS011;3081;50.584;7.032;2023-07-20T14:01:59;8.80;;;1.10;;
6101;SDS011;3081;50.584;7.032;2023-07-20T14:04:26;8.00;;;1.23;;
6101;SDS011;3081;50.584;7.032;2023-07-20T14:06:54;7.07;;;1.60;;
6101;SDS011;3081;50.584;7.032;2023-07-20T14:09:21;6.47;;;1.37;;
6101;SDS011;3081;50.584;7.032;2023-07-20T14:11:48;6.13;;;1.10;;
6101;SDS011;3081;50.584;7.032;2023-07-20T14:14:15;6.17;;;1.00;;
6101;SDS011;3081;50.584;7.032;2023-07-20T14:16:43;6.93;;;1.50;;
6101;SDS011;3081;50.584;7.032;2023-07-20T14:19:10;8.80;;;2.20;;
6101;SDS011;3081;50.584;7.032;2023-07-20T14:21:38;11.33;;;1.70;;
6101;SDS011;3081;50.584;7.032;2023-07-20T14:24:05;6.80;;;1.30;;
6101;SDS011;3081;50.584;7.032;2023-07-20T14:26:32;7.20;;;1.30;;
6101;SDS011;3081;50.584;7.032;2023-07-20T14:29:00;8.47;;;1.13;;
6101;SDS011;3081;50.584;7.032;2023-07-20T14:31:27;7.00;;;1.33;;
6101;SDS011;3081;50.584;7.032;2023-07-20T14:33:55;6.90;;;1.50;;
6101;SDS011;3081;50.584;7.032;2023-07-20T14:36:22;8.50;;;1.83;;
6101;SDS011;3081;50.584;7.032;2023-07-20T14:38:49;7.23;;;1.50;;
6101;SDS011;3081;50.584;7.032;2023-07-20T14:41:16;8.40;;;1.60;;
6101;SDS011;3081;50.584;7.032;2023-07-20T14:43:43;7.73;;;1.13;;
6101;SDS011;3081;50.584;7.032;2023-07-20T14:46:09;5.97;;;1.03;;
6101;SDS011;3081;50.584;7.032;2023-07-20T14:48:36;9.23;;;1.40;;
6101;SDS011;3081;50.584;7.032;2023-07-20T14:51:05;6.50;;;1.10;;
6101;SDS011;3081;50.584;7.032;2023-07-20T14:53:31;8.57;;;1.50;;
6101;SDS011;3081;50.584;7.032;2023-07-20T14:55:59;13.70;;;1.63;;
6101;SDS011;3081;50.584;7.032;2023-07-20T14:58:27;8.33;;;1.80;;
6101;SDS011;3081;50.584;7.032;2023-07-20T15:00:54;7.77;;;1.77;;
6101;SDS011;3081;50.584;7.032;2023-07-20T15:03:20;9.83;;;1.90;;
6101;SDS011;3081;50.584;7.032;2023-07-20T15:05:47;8.80;;;1.73;;
6101;SDS011;3081;50.584;7.032;2023-07-20T15:08:17;7.70;;;1.70;;
6101;SDS011;3081;50.584;7.032;2023-07-20T15:10:45;10.20;;;2.40;;
6101;SDS011;3081;50.584;7.032;2023-07-20T15:13:12;11.17;;;1.60;;
6101;SDS011;3081;50.584;7.032;2023-07-20T15:15:39;8.73;;;1.20;;
6101;SDS011;3081;50.584;7.032;2023-07-20T15:18:06;10.73;;;2.60;;
6101;SDS011;3081;50.584;7.032;2023-07-20T15:20:33;13.30;;;1.60;;